Herbert C Jackson — WL3972 — position and weather

sailwx.info

Track history (hours):
 
Tides and Currents Weather Stations Pressure Air Temp Water Temp Dewpoint Dewpoint Depression Visibility Wind Speed Wind Dir Waves Ship Positions

Herbert C Jackson

Owner: THE INTERLAKE STEAMSHIP COMPANY, Middleburg Heights, OH. More information available from US FCC via Universal Licensing System and Coast Guard Vessel Documentation Center.

Last reported at 2015-Jul-06 10:00 UTC. Time now 2015-Jul-06 11:27 UTC.
Position N 44°00' W 082°30'.

Length 239 m; draft 8.4 m.

Type: Cargo ship. MMSI: 366904930.

Wind from 180 at 13 knots

Barometer 1017.1 mb
Air temperature 18.1 ° C
Water temperature 11.0 ° C

Date/timePositionNaut miles runAvg speedWind from/ knotsBaromVisibWave heightAir tempDewpointWater temp
2015-Jul-06 10:00N 44°00' W 082°30'1312.8 180 / 131017.1 18.1 11.0
2015-Jul-06 09:00N 44°12' W 082°36'7813.0 160 / 121017.4 17.9 10.5
2015-Jul-06 03:00N 45°24' W 083°18'1514.7 150 / 171015.7 16.8 10.5
2015-Jul-06 02:00N 45°36' W 083°30'2312.6 130 / 211015.7 15.2 11.0
2015-Jul-06 00:10N 45°54' W 083°51'213.9
2015-Jul-06 00:00N 45°54' W 083°54'1312.7 080 / 161016.4 18.2 13.3
2015-Jul-05 23:00N 46°06' W 084°00'7 7.3 100 / 121017.1 19.9 13.1
2015-Jul-05 22:00N 46°12' W 084°06'7 7.3 120 / 201016.4 20.7 13.1
2015-Jul-05 21:00N 46°18' W 084°12'7 7.3 130 / 131016.7 24.1 12.9
2015-Jul-05 20:00N 46°24' W 084°18'7 3.6 190 / 101017.1 26.2 12.5
2015-Jul-05 18:00N 46°30' W 084°24'4 4.1 150 / 61017.6 24.8 12.2
2015-Jul-05 17:00N 46°30' W 084°30'1010.2 180 / 141017.9 23.8 11.6
2015-Jul-05 16:00N 46°36' W 084°42'4011.5 120 / 191016.6 18.9 10.5
2015-Jul-05 12:31N 46°49' W 085°37'714.4
2015-Jul-05 12:00N 46°48' W 085°48'511.5 160 / 81016.6 15.2 3.9
2015-Jul-05 11:33N 46°48' W 085°55'713.1
2015-Jul-05 11:00N 46°48' W 086°06'614.0 180 / 151016.3 16.0 4.0
2015-Jul-05 10:33N 46°45' W 086°14'813.5
2015-Jul-05 10:00N 46°42' W 086°24'613.6 170 / 131015.9 13.9 3.5
2015-Jul-05 09:33N 46°42' W 086°33'611.4
2015-Jul-05 09:00N 46°42' W 086°42'1014.4 140 / 131014.9 13.2 4.2
2015-Jul-05 08:18N 46°39' W 086°56'412.9
2015-Jul-05 08:00N 46°36' W 087°00'1212.4 120 / 141014.9 13.8 4.3
2015-Jul-05 07:00N 46°36' W 087°18'4 5.2 130 / 121015.2 14.1 9.6
2015-Jul-05 06:16N 46°35' W 087°23'1 5.0
2015-Jul-05 06:00N 46°36' W 087°24'0 0.0 130 / 61016.3 13.6 10.5
2015-Jul-05 05:00N 46°36' W 087°24'0 0.0 140 / 31016.3 12.4 10.6
2015-Jul-05 04:00N 46°36' W 087°24'0 0.0 120 / 31015.9 11.7 10.4
2015-Jul-05 03:00N 46°36' W 087°24'0 0.0 150 / 21015.6 12.0 10.4
2015-Jul-05 02:00N 46°36' W 087°24'0 0.0 120 / 11015.6 11.7 10.0
2015-Jul-05 01:00N 46°36' W 087°24'8 8.2 130 / 21015.6 10.8 10.6
2015-Jul-05 00:00N 46°36' W 087°12'1212.4 150 / 31015.6 7.4 6.4
2015-Jul-04 23:00N 46°36' W 086°54'1413.7 070 / 61015.6 5.2 4.3
2015-Jul-04 22:00N 46°42' W 086°36'1212.3 070 / 71015.9 4.9 3.9
2015-Jul-04 21:00N 46°42' W 086°18'1413.7 050 / 11016.3 5.8 4.5
2015-Jul-04 20:00N 46°48' W 086°00'1616.4 280 / 41015.9 4.6 3.9
2015-Jul-04 19:00N 46°48' W 085°36'1212.3 310 / 61015.6 4.7 3.3
2015-Jul-04 18:00N 46°48' W 085°18'2411.9 260 / 91014.9 5.6 6.6
2015-Jul-04 16:00N 46°36' W 084°48'1011.9 290 / 121014.9 9.6 10.6
2015-Jul-04 15:11N 46°30' W 084°37'1 3.0
2015-Jul-04 15:00N 46°30' W 084°36'8 8.3 300 / 191013.5 10.5 12.1
2015-Jul-04 14:00N 46°30' W 084°24'4 4.1 210 / 71014.2 13.4 11.5
2015-Jul-04 13:00N 46°30' W 084°18'6 6.0 260 / 61014.0 13.1 11.6
2015-Jul-04 12:00N 46°24' W 084°18'511.2 320 / 51013.7 12.1 11.5
2015-Jul-04 11:33N 46°21' W 084°12'5 9.5
2015-Jul-04 11:00N 46°18' W 084°06'3 6.3 290 / 41013.0 11.2 10.9
2015-Jul-04 10:33N 46°15' W 084°06'3 5.8
2015-Jul-04 10:00N 46°12' W 084°06'715.0 290 / 71012.0 14.0 12.4
2015-Jul-04 09:33N 46°06' W 084°01'814.3
2015-Jul-04 09:00N 46°00' W 083°54'3 6.7 240 / 91011.6 14.6 13.8
2015-Jul-04 08:33N 45°57' W 083°53'5 8.7
2015-Jul-04 08:00N 45°54' W 083°48'920.2 240 / 81012.0 15.8 14.0
2015-Jul-04 07:33N 45°45' W 083°44'1313.4
2015-Jul-04 06:33N 45°34' W 083°33'5 8.9
2015-Jul-04 06:00N 45°30' W 083°30'1514.7 200 / 111012.3 15.5 10.5
2015-Jul-04 05:00N 45°18' W 083°18'2713.6 170 / 81012.7 16.3 12.5
2015-Jul-04 03:00N 44°54' W 083°00'6412.7 200 / 121012.7 15.8 13.2
2015-Jul-03 22:00N 43°54' W 082°30'1818.0 050 / 21013.7 16.3 12.5
2015-Jul-03 21:00N 43°36' W 082°30'1312.8 040 / 31014.0 16.0 12.9
2015-Jul-03 20:00N 43°24' W 082°24'1212.0 050 / 61014.3 16.2 13.4
2015-Jul-03 19:00N 43°12' W 082°24'1212.0 350 / 101014.3 16.2 14.3
2015-Jul-03 18:00N 43°00' W 082°24'7 7.4 360 / 121014.7 16.6 15.2
2015-Jul-03 17:00N 42°54' W 082°30'6 6.0 200 / 81015.4 21.3 15.3
2015-Jul-03 16:00N 42°48' W 082°30'1212.0 180 / 81015.7 19.9 15.4
2015-Jul-03 15:00N 42°36' W 082°30'2110.7 130 / 41015.7 18.1 15.6
2015-Jul-03 13:00N 42°24' W 082°54'4 0.4 030 / 101015.5 15.7 17.5
2015-Jul-03 01:00N 42°24' W 082°48'1110.7 040 / 131015.9 18.5 17.0
2015-Jul-03 00:00N 42°30' W 082°36'1312.8 350 / 61015.9 19.1 15.5
2015-Jul-02 23:00N 42°42' W 082°30'1212.0 020 / 101016.0 20.3 15.6
2015-Jul-02 22:00N 42°54' W 082°30'7 7.4 1016.4 18.3 15.3
2015-Jul-02 21:00N 43°00' W 082°24'1212.0 1017.1 17.2 15.1
2015-Jul-02 20:00N 43°12' W 082°24'1212.0 010 / 121017.1 16.3 13.2
2015-Jul-02 19:00N 43°24' W 082°24'1312.8 030 / 121017.4 14.9 12.3
2015-Jul-02 18:00N 43°36' W 082°30'1212.0 040 / 71017.4 13.5 11.6
2015-Jul-02 17:00N 43°48' W 082°30'1312.8 070 / 51018.1 13.5 12.4
2015-Jul-02 16:00N 44°00' W 082°36'1212.0 070 / 41018.1 11.4 9.6
2015-Jul-02 15:00N 44°12' W 082°36'4414.6 020 / 71018.110.8 0.511.7 9.7
2015-Jul-02 12:00N 44°54' W 082°54'1312.7 360 / 121017.1 13.3 11.1
2015-Jul-02 11:00N 45°06' W 083°00'914.0 340 / 131016.7 12.4 10.2
2015-Jul-02 10:23N 45°13' W 083°07'615.8
2015-Jul-02 10:00N 45°18' W 083°12'511.3 320 / 111016.7 11.8 9.6
2015-Jul-02 09:32N 45°22' W 083°17'510.0
2015-Jul-02 09:00N 45°24' W 083°24'919.6 280 / 71016.4 11.2 9.6
2015-Jul-02 08:33N 45°32' W 083°28'1713.0
2015-Jul-02 07:16N 45°45' W 083°42'912.8
2015-Jul-02 06:33N 45°53' W 083°51'813.8
2015-Jul-02 06:00N 46°00' W 083°54'6 9.6 330 / 71016.4 10.3 13.7
2015-Jul-02 05:21N 46°04' W 084°01'2 5.3
2015-Jul-02 05:00N 46°06' W 084°00'715.4 290 / 71016.4 10.2 13.8
2015-Jul-02 04:33N 46°11' W 084°06'4 7.1
2015-Jul-02 04:00N 46°12' W 084°12'1212.0 300 / 41016.4 9.0 12.1
2015-Jul-02 03:00N 46°24' W 084°12'10 5.1 310 / 81015.7 9.2 11.1
2015-Jul-02 01:00N 46°30' W 084°24'0 0.0 310 / 121015.2 12.3 10.8
2015-Jul-02 00:00N 46°30' W 084°24'8 8.3 320 / 211014.9 11.4 10.1
2015-Jul-01 23:00N 46°30' W 084°36'1514.6 350 / 181015.6 11.9 10.9
2015-Jul-01 22:00N 46°42' W 084°48'1010.2 300 / 181015.2 11.1 7.9
2015-Jul-01 21:00N 46°48' W 085°00'1616.4 300 / 171015.6 8.1 7.2
2015-Jul-01 20:00N 46°48' W 085°24'1212.3 320 / 171015.6 6.3 3.8
2015-Jul-01 19:00N 46°48' W 085°42'1212.3 320 / 161015.9 5.9 3.1
2015-Jul-01 18:00N 46°48' W 086°00'1413.7 320 / 131016.3 5.4 4.1
2015-Jul-01 17:00N 46°42' W 086°18'1212.3 340 / 141015.9 5.1 3.5
2015-Jul-01 16:00N 46°42' W 086°36'1413.7 350 / 141015.9 5.1 3.7
2015-Jul-01 15:00N 46°36' W 086°54'1212.4 330 / 131016.3 4.6 3.5
2015-Jul-01 14:00N 46°36' W 087°12'8 2.1 330 / 161016.6 5.8 4.6
2015-Jul-01 10:00N 46°36' W 087°24'0 0.0 340 / 101014.9 8.2 8.0
2015-Jul-01 09:00N 46°36' W 087°24'0 0.0 330 / 101014.9 8.2 7.6
2015-Jul-01 08:00N 46°36' W 087°24'0 0.0 330 / 81014.6 8.6 7.4
2015-Jul-01 07:00N 46°36' W 087°24'8 8.2 340 / 131014.2 8.3 7.9
2015-Jul-01 06:00N 46°36' W 087°12'1616.5 330 / 181013.5 5.3 4.5
2015-Jul-01 05:00N 46°36' W 086°48'1413.7 310 / 131013.2 4.6 3.6
2015-Jul-01 04:00N 46°42' W 086°30'1212.3 310 / 151012.9 4.6 3.8
2015-Jul-01 03:00N 46°42' W 086°12'3712.5 330 / 171012.5 5.6 4.1
2015-Jul-01 00:00N 46°48' W 085°18'1212.3 240 / 141010.5 5.1 7.3
2015-Jun-30 23:00N 46°48' W 085°00'1514.6 260 / 191009.8 6.9 8.3
2015-Jun-30 22:00N 46°36' W 084°48'817.2 310 / 81009.8 9.9 10.4
2015-Jun-30 21:33N 46°32' W 084°39'611.5
2015-Jun-30 21:00N 46°30' W 084°30'20 5.1 320 / 201008.8 10.2 10.0
2015-Jun-30 17:00N 46°18' W 084°06'510.1 040 / 81008.3 20.8 11.7
2015-Jun-30 16:27N 46°13' W 084°07'1611.2
2015-Jun-30 15:03N 46°00' W 083°53'111.3
2015-Jun-30 15:00N 46°00' W 083°54'614.0 030 / 111008.6 18.2 14.3
2015-Jun-30 14:33N 45°54' W 083°52'711.8
2015-Jun-30 14:00N 45°48' W 083°48'6913.8 150 / 31009.3 15.2 12.2
2015-Jun-30 09:00N 44°48' W 083°00'5112.7 210 / 101008.9 15.1 12.1
2015-Jun-30 05:00N 44°00' W 082°36'4314.3 200 / 71010.3 17.6 13.5
2015-Jun-30 02:00N 43°18' W 082°24'1212.0 170 / 71011.0 17.0 14.2
2015-Jun-30 01:00N 43°06' W 082°24'6 6.0 190 / 91011.0 20.0 14.6
2015-Jun-30 00:00N 43°00' W 082°24'19 9.3 160 / 91011.0 21.1 15.0
2015-Jun-29 22:00N 42°42' W 082°30'7 7.4 190 / 121011.3 21.3 15.1
2015-Jun-29 21:00N 42°36' W 082°36'1514.9 220 / 91011.5 21.1 15.4
2015-Jun-29 20:00N 42°24' W 082°48'1110.7 200 / 101011.8 20.3 16.7
2015-Jun-29 19:00N 42°18' W 083°00'4 4.4 200 / 141011.8 21.2 17.8
2015-Jun-29 18:00N 42°18' W 083°06'4 4.4 160 / 141011.8 21.4 18.7
2015-Jun-29 17:00N 42°18' W 083°12'0 0.0 140 / 131011.8 22.0 20.5
2015-Jun-29 16:00N 42°18' W 083°12'0 0.0 140 / 81011.8 23.2 24.8
2015-Jun-29 15:00N 42°18' W 083°12'0 0.0 160 / 101011.8 23.1 24.2
2015-Jun-29 14:00N 42°18' W 083°12'0 0.0 130 / 71012.1 22.5 23.4
2015-Jun-29 13:00N 42°18' W 083°12'0 0.0 160 / 51012.5 21.4 20.5
2015-Jun-29 12:00N 42°18' W 083°12'4 0.5 160 / 31012.5 19.9 20.2
2015-Jun-29 03:00N 42°18' W 083°06'11 5.4 160 / 21012.5 19.3 17.8
2015-Jun-29 01:00N 42°24' W 082°54'1110.7 120 / 121012.1 19.6 16.5
2015-Jun-29 00:00N 42°30' W 082°42'38 9.6 120 / 81012.1 18.7 15.1
2015-Jun-28 20:00N 43°06' W 082°24'1212.0 1012.0 17.1 13.9
2015-Jun-28 19:00N 43°18' W 082°24'1212.0 340 / 141011.3 15.6 11.9
2015-Jun-28 18:00N 43°30' W 082°24'1312.8 340 / 151011.3 14.7 11.1
2015-Jun-28 17:00N 43°42' W 082°30'1818.0 320 / 141012.0 13.3 10.4
2015-Jun-28 16:00N 44°00' W 082°30'2512.7 330 / 121012.3 12.0 9.0
2015-Jun-28 14:00N 44°24' W 082°42'6513.0 340 / 121012.3 12.7 9.7
2015-Jun-28 09:00N 45°24' W 083°18'1514.7 020 / 111012.0 12.1 6.6
2015-Jun-28 08:00N 45°36' W 083°30'1010.3 010 / 41012.7 13.0 5.8
2015-Jun-28 07:00N 45°42' W 083°42'818.6 010 / 71013.0 15.5 8.3
2015-Jun-28 06:33N 45°50' W 083°46'712.5
2015-Jun-28 06:00N 45°54' W 083°54'714.1 260 / 41013.3 16.7 11.5
2015-Jun-28 05:30N 46°01' W 083°54'612.7
2015-Jun-28 05:00N 46°06' W 084°00'4 7.6 030 / 21014.0 15.4 11.7
2015-Jun-28 04:32N 46°09' W 084°03'4 7.1
2015-Jun-28 04:00N 46°12' W 084°06'7 9.6 100 / 51014.3 17.2 10.7
2015-Jun-28 03:14N 46°18' W 084°13'1 3.4
2015-Jun-28 03:00N 46°18' W 084°12'7 7.3 130 / 21014.7 15.9 10.3
2015-Jun-28 02:00N 46°24' W 084°18'6 6.0 080 / 31014.7 17.0 9.8
2015-Jun-28 01:00N 46°30' W 084°18'4 4.1 280 / 41014.7 17.9 9.4
2015-Jun-28 00:00N 46°30' W 084°24'4 4.1 280 / 41014.9 21.9 9.7
2015-Jun-27 23:00N 46°30' W 084°30'8 8.3 150 / 21014.9 18.3 9.2
2015-Jun-27 22:00N 46°30' W 084°42'1312.7 030 / 51015.6 14.9 8.2
2015-Jun-27 21:00N 46°42' W 084°48'1413.7 340 / 111015.9 11.0 7.3
2015-Jun-27 20:00N 46°48' W 085°06'1212.3 360 / 71016.6 9.5 4.6
2015-Jun-27 19:00N 46°48' W 085°24'1212.3 1016.9 7.9 3.4
2015-Jun-27 18:00N 46°48' W 085°42'1212.3 020 / 81017.6 11.6 3.1
2015-Jun-27 17:00N 46°48' W 086°00'1413.7 050 / 41017.9 7.7 3.4
2015-Jun-27 16:00N 46°42' W 086°18'1212.3 040 / 61018.3 7.8 3.8
2015-Jun-27 15:00N 46°42' W 086°36'1817.5 060 / 41018.6 7.2 3.8
2015-Jun-27 14:00N 46°36' W 087°00'1212.4 040 / 31019.0 9.9 3.4
2015-Jun-27 13:00N 46°36' W 087°18'4 0.7 030 / 21019.0 10.6 5.6
2015-Jun-27 07:08N 46°35' W 087°23'0 0.0
2015-Jun-27 06:32N 46°35' W 087°23'2 2.0
2015-Jun-27 05:33N 46°34' W 087°21'611.0
2015-Jun-27 05:00N 46°36' W 087°12'714.9 190 / 51019.0 9.7 6.8
2015-Jun-27 04:32N 46°37' W 087°02'1912.1
2015-Jun-27 03:00N 46°42' W 086°36'1616.5 240 / 31019.0 6.2 4.0
2015-Jun-27 02:00N 46°42' W 086°12'1413.7 080 / 101019.0 7.2 3.6
2015-Jun-27 01:00N 46°48' W 085°54'2512.3 070 / 91019.3 9.4 3.3
2015-Jun-26 23:00N 46°48' W 085°18'1212.3 210 / 51018.6 8.4 7.7
2015-Jun-26 22:00N 46°48' W 085°00'1514.6 280 / 141017.9 7.7 8.3
2015-Jun-26 21:00N 46°36' W 084°48'1413.8 340 / 101018.3 10.8 10.1
2015-Jun-26 20:00N 46°30' W 084°30'8 4.1 300 / 201017.3 14.0 8.4
2015-Jun-26 18:00N 46°30' W 084°18'7 7.3 300 / 111018.4 22.7 8.5
2015-Jun-26 17:00N 46°24' W 084°12'7 7.3 210 / 41019.4 22.1 8.4
2015-Jun-26 16:00N 46°18' W 084°06'511.8 330 / 31019.8 20.9 8.6
2015-Jun-26 15:33N 46°13' W 084°07'815.1
2015-Jun-26 15:00N 46°06' W 084°00'4 7.8 270 / 51020.1 16.5 12.2
2015-Jun-26 14:25N 46°03' W 083°56'3 6.8
2015-Jun-26 14:00N 46°00' W 083°54'817.3 250 / 31020.4 15.6 11.8
2015-Jun-26 13:33N 45°53' W 083°51'5 9.2
2015-Jun-26 13:00N 45°48' W 083°48'920.1 250 / 71020.1 10.1 9.1
2015-Jun-26 12:33N 45°42' W 083°39'2713.5
2015-Jun-26 10:33N 45°19' W 083°18'  
Track history (hours):
 
Tides and Currents Weather Stations Pressure Air Temp Water Temp Dewpoint Dewpoint Depression Visibility Wind Speed Wind Dir Waves Ship Positions

Herbert C Jackson

Owner: THE INTERLAKE STEAMSHIP COMPANY, Middleburg Heights, OH. More information available from US FCC via Universal Licensing System and Coast Guard Vessel Documentation Center.

Last reported at 2015-Jul-06 10:00 UTC. Time now 2015-Jul-06 11:27 UTC.
Position N 44°00' W 082°30'.

Length 239 m; draft 8.4 m.

Type: Cargo ship. MMSI: 366904930.

Wind from 180 at 13 knots

Barometer 1017.1 mb
Air temperature 18.1 ° C
Water temperature 11.0 ° C

Date/timePositionNaut miles runAvg speedWind from/ knotsBaromVisibWave heightAir tempDewpointWater temp
2015-Jul-06 10:00N 44°00' W 082°30'1312.8 180 / 131017.1 18.1 11.0
2015-Jul-06 09:00N 44°12' W 082°36'7813.0 160 / 121017.4 17.9 10.5
2015-Jul-06 03:00N 45°24' W 083°18'1514.7 150 / 171015.7 16.8 10.5
2015-Jul-06 02:00N 45°36' W 083°30'2312.6 130 / 211015.7 15.2 11.0
2015-Jul-06 00:10N 45°54' W 083°51'213.9
2015-Jul-06 00:00N 45°54' W 083°54'1312.7 080 / 161016.4 18.2 13.3
2015-Jul-05 23:00N 46°06' W 084°00'7 7.3 100 / 121017.1 19.9 13.1
2015-Jul-05 22:00N 46°12' W 084°06'7 7.3 120 / 201016.4 20.7 13.1
2015-Jul-05 21:00N 46°18' W 084°12'7 7.3 130 / 131016.7 24.1 12.9
2015-Jul-05 20:00N 46°24' W 084°18'7 3.6 190 / 101017.1 26.2 12.5
2015-Jul-05 18:00N 46°30' W 084°24'4 4.1 150 / 61017.6 24.8 12.2
2015-Jul-05 17:00N 46°30' W 084°30'1010.2 180 / 141017.9 23.8 11.6
2015-Jul-05 16:00N 46°36' W 084°42'4011.5 120 / 191016.6 18.9 10.5
2015-Jul-05 12:31N 46°49' W 085°37'714.4
2015-Jul-05 12:00N 46°48' W 085°48'511.5 160 / 81016.6 15.2 3.9
2015-Jul-05 11:33N 46°48' W 085°55'713.1
2015-Jul-05 11:00N 46°48' W 086°06'614.0 180 / 151016.3 16.0 4.0
2015-Jul-05 10:33N 46°45' W 086°14'813.5
2015-Jul-05 10:00N 46°42' W 086°24'613.6 170 / 131015.9 13.9 3.5
2015-Jul-05 09:33N 46°42' W 086°33'611.4
2015-Jul-05 09:00N 46°42' W 086°42'1014.4 140 / 131014.9 13.2 4.2
2015-Jul-05 08:18N 46°39' W 086°56'412.9
2015-Jul-05 08:00N 46°36' W 087°00'1212.4 120 / 141014.9 13.8 4.3
2015-Jul-05 07:00N 46°36' W 087°18'4 5.2 130 / 121015.2 14.1 9.6
2015-Jul-05 06:16N 46°35' W 087°23'1 5.0
2015-Jul-05 06:00N 46°36' W 087°24'0 0.0 130 / 61016.3 13.6 10.5
2015-Jul-05 05:00N 46°36' W 087°24'0 0.0 140 / 31016.3 12.4 10.6
2015-Jul-05 04:00N 46°36' W 087°24'0 0.0 120 / 31015.9 11.7 10.4
2015-Jul-05 03:00N 46°36' W 087°24'0 0.0 150 / 21015.6 12.0 10.4
2015-Jul-05 02:00N 46°36' W 087°24'0 0.0 120 / 11015.6 11.7 10.0
2015-Jul-05 01:00N 46°36' W 087°24'8 8.2 130 / 21015.6 10.8 10.6
2015-Jul-05 00:00N 46°36' W 087°12'1212.4 150 / 31015.6 7.4 6.4
2015-Jul-04 23:00N 46°36' W 086°54'1413.7 070 / 61015.6 5.2 4.3
2015-Jul-04 22:00N 46°42' W 086°36'1212.3 070 / 71015.9 4.9 3.9
2015-Jul-04 21:00N 46°42' W 086°18'1413.7 050 / 11016.3 5.8 4.5
2015-Jul-04 20:00N 46°48' W 086°00'1616.4 280 / 41015.9 4.6 3.9
2015-Jul-04 19:00N 46°48' W 085°36'1212.3 310 / 61015.6 4.7 3.3
2015-Jul-04 18:00N 46°48' W 085°18'2411.9 260 / 91014.9 5.6 6.6
2015-Jul-04 16:00N 46°36' W 084°48'1011.9 290 / 121014.9 9.6 10.6
2015-Jul-04 15:11N 46°30' W 084°37'1 3.0
2015-Jul-04 15:00N 46°30' W 084°36'8 8.3 300 / 191013.5 10.5 12.1
2015-Jul-04 14:00N 46°30' W 084°24'4 4.1 210 / 71014.2 13.4 11.5
2015-Jul-04 13:00N 46°30' W 084°18'6 6.0 260 / 61014.0 13.1 11.6
2015-Jul-04 12:00N 46°24' W 084°18'511.2 320 / 51013.7 12.1 11.5
2015-Jul-04 11:33N 46°21' W 084°12'5 9.5
2015-Jul-04 11:00N 46°18' W 084°06'3 6.3 290 / 41013.0 11.2 10.9
2015-Jul-04 10:33N 46°15' W 084°06'3 5.8
2015-Jul-04 10:00N 46°12' W 084°06'715.0 290 / 71012.0 14.0 12.4
2015-Jul-04 09:33N 46°06' W 084°01'814.3
2015-Jul-04 09:00N 46°00' W 083°54'3 6.7 240 / 91011.6 14.6 13.8
2015-Jul-04 08:33N 45°57' W 083°53'5 8.7
2015-Jul-04 08:00N 45°54' W 083°48'920.2 240 / 81012.0 15.8 14.0
2015-Jul-04 07:33N 45°45' W 083°44'1313.4
2015-Jul-04 06:33N 45°34' W 083°33'5 8.9
2015-Jul-04 06:00N 45°30' W 083°30'1514.7 200 / 111012.3 15.5 10.5
2015-Jul-04 05:00N 45°18' W 083°18'2713.6 170 / 81012.7 16.3 12.5
2015-Jul-04 03:00N 44°54' W 083°00'6412.7 200 / 121012.7 15.8 13.2
2015-Jul-03 22:00N 43°54' W 082°30'1818.0 050 / 21013.7 16.3 12.5
2015-Jul-03 21:00N 43°36' W 082°30'1312.8 040 / 31014.0 16.0 12.9
2015-Jul-03 20:00N 43°24' W 082°24'1212.0 050 / 61014.3 16.2 13.4
2015-Jul-03 19:00N 43°12' W 082°24'1212.0 350 / 101014.3 16.2 14.3
2015-Jul-03 18:00N 43°00' W 082°24'7 7.4 360 / 121014.7 16.6 15.2
2015-Jul-03 17:00N 42°54' W 082°30'6 6.0 200 / 81015.4 21.3 15.3
2015-Jul-03 16:00N 42°48' W 082°30'1212.0 180 / 81015.7 19.9 15.4
2015-Jul-03 15:00N 42°36' W 082°30'2110.7 130 / 41015.7 18.1 15.6
2015-Jul-03 13:00N 42°24' W 082°54'4 0.4 030 / 101015.5 15.7 17.5
2015-Jul-03 01:00N 42°24' W 082°48'1110.7 040 / 131015.9 18.5 17.0
2015-Jul-03 00:00N 42°30' W 082°36'1312.8 350 / 61015.9 19.1 15.5
2015-Jul-02 23:00N 42°42' W 082°30'1212.0 020 / 101016.0 20.3 15.6
2015-Jul-02 22:00N 42°54' W 082°30'7 7.4 1016.4 18.3 15.3
2015-Jul-02 21:00N 43°00' W 082°24'1212.0 1017.1 17.2 15.1
2015-Jul-02 20:00N 43°12' W 082°24'1212.0 010 / 121017.1 16.3 13.2
2015-Jul-02 19:00N 43°24' W 082°24'1312.8 030 / 121017.4 14.9 12.3
2015-Jul-02 18:00N 43°36' W 082°30'1212.0 040 / 71017.4 13.5 11.6
2015-Jul-02 17:00N 43°48' W 082°30'1312.8 070 / 51018.1 13.5 12.4
2015-Jul-02 16:00N 44°00' W 082°36'1212.0 070 / 41018.1 11.4 9.6
2015-Jul-02 15:00N 44°12' W 082°36'4414.6 020 / 71018.110.8 0.511.7 9.7
2015-Jul-02 12:00N 44°54' W 082°54'1312.7 360 / 121017.1 13.3 11.1
2015-Jul-02 11:00N 45°06' W 083°00'914.0 340 / 131016.7 12.4 10.2
2015-Jul-02 10:23N 45°13' W 083°07'615.8
2015-Jul-02 10:00N 45°18' W 083°12'511.3 320 / 111016.7 11.8 9.6
2015-Jul-02 09:32N 45°22' W 083°17'510.0
2015-Jul-02 09:00N 45°24' W 083°24'919.6 280 / 71016.4 11.2 9.6
2015-Jul-02 08:33N 45°32' W 083°28'1713.0
2015-Jul-02 07:16N 45°45' W 083°42'912.8
2015-Jul-02 06:33N 45°53' W 083°51'813.8
2015-Jul-02 06:00N 46°00' W 083°54'6 9.6 330 / 71016.4 10.3 13.7
2015-Jul-02 05:21N 46°04' W 084°01'2 5.3
2015-Jul-02 05:00N 46°06' W 084°00'715.4 290 / 71016.4 10.2 13.8
2015-Jul-02 04:33N 46°11' W 084°06'4 7.1
2015-Jul-02 04:00N 46°12' W 084°12'1212.0 300 / 41016.4 9.0 12.1
2015-Jul-02 03:00N 46°24' W 084°12'10 5.1 310 / 81015.7 9.2 11.1
2015-Jul-02 01:00N 46°30' W 084°24'0 0.0 310 / 121015.2 12.3 10.8
2015-Jul-02 00:00N 46°30' W 084°24'8 8.3 320 / 211014.9 11.4 10.1
2015-Jul-01 23:00N 46°30' W 084°36'1514.6 350 / 181015.6 11.9 10.9
2015-Jul-01 22:00N 46°42' W 084°48'1010.2 300 / 181015.2 11.1 7.9
2015-Jul-01 21:00N 46°48' W 085°00'1616.4 300 / 171015.6 8.1 7.2
2015-Jul-01 20:00N 46°48' W 085°24'1212.3 320 / 171015.6 6.3 3.8
2015-Jul-01 19:00N 46°48' W 085°42'1212.3 320 / 161015.9 5.9 3.1
2015-Jul-01 18:00N 46°48' W 086°00'1413.7 320 / 131016.3 5.4 4.1
2015-Jul-01 17:00N 46°42' W 086°18'1212.3 340 / 141015.9 5.1 3.5
2015-Jul-01 16:00N 46°42' W 086°36'1413.7 350 / 141015.9 5.1 3.7
2015-Jul-01 15:00N 46°36' W 086°54'1212.4 330 / 131016.3 4.6 3.5
2015-Jul-01 14:00N 46°36' W 087°12'8 2.1 330 / 161016.6 5.8 4.6
2015-Jul-01 10:00N 46°36' W 087°24'0 0.0 340 / 101014.9 8.2 8.0
2015-Jul-01 09:00N 46°36' W 087°24'0 0.0 330 / 101014.9 8.2 7.6
2015-Jul-01 08:00N 46°36' W 087°24'0 0.0 330 / 81014.6 8.6 7.4
2015-Jul-01 07:00N 46°36' W 087°24'8 8.2 340 / 131014.2 8.3 7.9
2015-Jul-01 06:00N 46°36' W 087°12'1616.5 330 / 181013.5 5.3 4.5
2015-Jul-01 05:00N 46°36' W 086°48'1413.7 310 / 131013.2 4.6 3.6
2015-Jul-01 04:00N 46°42' W 086°30'1212.3 310 / 151012.9 4.6 3.8
2015-Jul-01 03:00N 46°42' W 086°12'3712.5 330 / 171012.5 5.6 4.1
2015-Jul-01 00:00N 46°48' W 085°18'1212.3 240 / 141010.5 5.1 7.3
2015-Jun-30 23:00N 46°48' W 085°00'1514.6 260 / 191009.8 6.9 8.3
2015-Jun-30 22:00N 46°36' W 084°48'817.2 310 / 81009.8 9.9 10.4
2015-Jun-30 21:33N 46°32' W 084°39'611.5
2015-Jun-30 21:00N 46°30' W 084°30'20 5.1 320 / 201008.8 10.2 10.0
2015-Jun-30 17:00N 46°18' W 084°06'510.1 040 / 81008.3 20.8 11.7
2015-Jun-30 16:27N 46°13' W 084°07'1611.2
2015-Jun-30 15:03N 46°00' W 083°53'111.3
2015-Jun-30 15:00N 46°00' W 083°54'614.0 030 / 111008.6 18.2 14.3
2015-Jun-30 14:33N 45°54' W 083°52'711.8
2015-Jun-30 14:00N 45°48' W 083°48'6913.8 150 / 31009.3 15.2 12.2
2015-Jun-30 09:00N 44°48' W 083°00'5112.7 210 / 101008.9 15.1 12.1
2015-Jun-30 05:00N 44°00' W 082°36'4314.3 200 / 71010.3 17.6 13.5
2015-Jun-30 02:00N 43°18' W 082°24'1212.0 170 / 71011.0 17.0 14.2
2015-Jun-30 01:00N 43°06' W 082°24'6 6.0 190 / 91011.0 20.0 14.6
2015-Jun-30 00:00N 43°00' W 082°24'19 9.3 160 / 91011.0 21.1 15.0
2015-Jun-29 22:00N 42°42' W 082°30'7 7.4 190 / 121011.3 21.3 15.1
2015-Jun-29 21:00N 42°36' W 082°36'1514.9 220 / 91011.5 21.1 15.4
2015-Jun-29 20:00N 42°24' W 082°48'1110.7 200 / 101011.8 20.3 16.7
2015-Jun-29 19:00N 42°18' W 083°00'4 4.4 200 / 141011.8 21.2 17.8
2015-Jun-29 18:00N 42°18' W 083°06'4 4.4 160 / 141011.8 21.4 18.7
2015-Jun-29 17:00N 42°18' W 083°12'0 0.0 140 / 131011.8 22.0 20.5
2015-Jun-29 16:00N 42°18' W 083°12'0 0.0 140 / 81011.8 23.2 24.8
2015-Jun-29 15:00N 42°18' W 083°12'0 0.0 160 / 101011.8 23.1 24.2
2015-Jun-29 14:00N 42°18' W 083°12'0 0.0 130 / 71012.1 22.5 23.4
2015-Jun-29 13:00N 42°18' W 083°12'0 0.0 160 / 51012.5 21.4 20.5
2015-Jun-29 12:00N 42°18' W 083°12'4 0.5 160 / 31012.5 19.9 20.2
2015-Jun-29 03:00N 42°18' W 083°06'11 5.4 160 / 21012.5 19.3 17.8
2015-Jun-29 01:00N 42°24' W 082°54'1110.7 120 / 121012.1 19.6 16.5
2015-Jun-29 00:00N 42°30' W 082°42'38 9.6 120 / 81012.1 18.7 15.1
2015-Jun-28 20:00N 43°06' W 082°24'1212.0 1012.0 17.1 13.9
2015-Jun-28 19:00N 43°18' W 082°24'1212.0 340 / 141011.3 15.6 11.9
2015-Jun-28 18:00N 43°30' W 082°24'1312.8 340 / 151011.3 14.7 11.1
2015-Jun-28 17:00N 43°42' W 082°30'1818.0 320 / 141012.0 13.3 10.4
2015-Jun-28 16:00N 44°00' W 082°30'2512.7 330 / 121012.3 12.0 9.0
2015-Jun-28 14:00N 44°24' W 082°42'6513.0 340 / 121012.3 12.7 9.7
2015-Jun-28 09:00N 45°24' W 083°18'1514.7 020 / 111012.0 12.1 6.6
2015-Jun-28 08:00N 45°36' W 083°30'1010.3 010 / 41012.7 13.0 5.8
2015-Jun-28 07:00N 45°42' W 083°42'818.6 010 / 71013.0 15.5 8.3
2015-Jun-28 06:33N 45°50' W 083°46'712.5
2015-Jun-28 06:00N 45°54' W 083°54'714.1 260 / 41013.3 16.7 11.5
2015-Jun-28 05:30N 46°01' W 083°54'612.7
2015-Jun-28 05:00N 46°06' W 084°00'4 7.6 030 / 21014.0 15.4 11.7
2015-Jun-28 04:32N 46°09' W 084°03'4 7.1
2015-Jun-28 04:00N 46°12' W 084°06'7 9.6 100 / 51014.3 17.2 10.7
2015-Jun-28 03:14N 46°18' W 084°13'1 3.4
2015-Jun-28 03:00N 46°18' W 084°12'7 7.3 130 / 21014.7 15.9 10.3
2015-Jun-28 02:00N 46°24' W 084°18'6 6.0 080 / 31014.7 17.0 9.8
2015-Jun-28 01:00N 46°30' W 084°18'4 4.1 280 / 41014.7 17.9 9.4
2015-Jun-28 00:00N 46°30' W 084°24'4 4.1 280 / 41014.9 21.9 9.7
2015-Jun-27 23:00N 46°30' W 084°30'8 8.3 150 / 21014.9 18.3 9.2
2015-Jun-27 22:00N 46°30' W 084°42'1312.7 030 / 51015.6 14.9 8.2
2015-Jun-27 21:00N 46°42' W 084°48'1413.7 340 / 111015.9 11.0 7.3
2015-Jun-27 20:00N 46°48' W 085°06'1212.3 360 / 71016.6 9.5 4.6
2015-Jun-27 19:00N 46°48' W 085°24'1212.3 1016.9 7.9 3.4
2015-Jun-27 18:00N 46°48' W 085°42'1212.3 020 / 81017.6 11.6 3.1
2015-Jun-27 17:00N 46°48' W 086°00'1413.7 050 / 41017.9 7.7 3.4
2015-Jun-27 16:00N 46°42' W 086°18'1212.3 040 / 61018.3 7.8 3.8
2015-Jun-27 15:00N 46°42' W 086°36'1817.5 060 / 41018.6 7.2 3.8
2015-Jun-27 14:00N 46°36' W 087°00'1212.4 040 / 31019.0 9.9 3.4
2015-Jun-27 13:00N 46°36' W 087°18'4 0.7 030 / 21019.0 10.6 5.6
2015-Jun-27 07:08N 46°35' W 087°23'0 0.0
2015-Jun-27 06:32N 46°35' W 087°23'2 2.0
2015-Jun-27 05:33N 46°34' W 087°21'611.0
2015-Jun-27 05:00N 46°36' W 087°12'714.9 190 / 51019.0 9.7 6.8
2015-Jun-27 04:32N 46°37' W 087°02'1912.1
2015-Jun-27 03:00N 46°42' W 086°36'1616.5 240 / 31019.0 6.2 4.0
2015-Jun-27 02:00N 46°42' W 086°12'1413.7 080 / 101019.0 7.2 3.6
2015-Jun-27 01:00N 46°48' W 085°54'2512.3 070 / 91019.3 9.4 3.3
2015-Jun-26 23:00N 46°48' W 085°18'1212.3 210 / 51018.6 8.4 7.7
2015-Jun-26 22:00N 46°48' W 085°00'1514.6 280 / 141017.9 7.7 8.3
2015-Jun-26 21:00N 46°36' W 084°48'1413.8 340 / 101018.3 10.8 10.1
2015-Jun-26 20:00N 46°30' W 084°30'8 4.1 300 / 201017.3 14.0 8.4
2015-Jun-26 18:00N 46°30' W 084°18'7 7.3 300 / 111018.4 22.7 8.5
2015-Jun-26 17:00N 46°24' W 084°12'7 7.3 210 / 41019.4 22.1 8.4
2015-Jun-26 16:00N 46°18' W 084°06'511.8 330 / 31019.8 20.9 8.6
2015-Jun-26 15:33N 46°13' W 084°07'815.1
2015-Jun-26 15:00N 46°06' W 084°00'4 7.8 270 / 51020.1 16.5 12.2
2015-Jun-26 14:25N 46°03' W 083°56'3 6.8
2015-Jun-26 14:00N 46°00' W 083°54'817.3 250 / 31020.4 15.6 11.8
2015-Jun-26 13:33N 45°53' W 083°51'5 9.2
2015-Jun-26 13:00N 45°48' W 083°48'920.1 250 / 71020.1 10.1 9.1
2015-Jun-26 12:33N 45°42' W 083°39'2713.5
2015-Jun-26 10:33N 45°19' W 083°18'  

Dump ship's entire track history